sensor_id;sensor_type;location;lat;lon;timestamp;pressure;altitude;pressure_sealevel;temperature;humidity
72414;BME280;60995;52.154;4.498;2023-06-01T00:00:24;102498.31;;;13.49;71.07
72414;BME280;60995;52.154;4.498;2023-06-01T00:02:40;102500.38;;;13.46;71.02
72414;BME280;60995;52.154;4.498;2023-06-01T00:04:57;102502.75;;;13.50;70.72
72414;BME280;60995;52.154;4.498;2023-06-01T00:07:13;102508.84;;;13.17;70.57
72414;BME280;60995;52.154;4.498;2023-06-01T00:09:30;102501.28;;;13.20;71.21
72414;BME280;60995;52.154;4.498;2023-06-01T00:11:46;102502.47;;;13.05;71.56
72414;BME280;60995;52.154;4.498;2023-06-01T00:14:03;102495.75;;;13.22;71.78
72414;BME280;60995;52.154;4.498;2023-06-01T00:16:19;102496.69;;;13.47;71.34
72414;BME280;60995;52.154;4.498;2023-06-01T00:18:35;102497.78;;;13.31;70.67
72414;BME280;60995;52.154;4.498;2023-06-01T00:20:52;102498.69;;;13.19;71.04
72414;BME280;60995;52.154;4.498;2023-06-01T00:23:08;102495.22;;;13.17;70.87
72414;BME280;60995;52.154;4.498;2023-06-01T00:25:25;102492.19;;;13.08;71.10
72414;BME280;60995;52.154;4.498;2023-06-01T00:27:41;102498.63;;;13.07;70.96
72414;BME280;60995;52.154;4.498;2023-06-01T00:29:57;102491.44;;;13.06;71.15
72414;BME280;60995;52.154;4.498;2023-06-01T00:32:14;102503.97;;;13.09;71.24
72414;BME280;60995;52.154;4.498;2023-06-01T00:34:30;102482.34;;;13.19;71.16
72414;BME280;60995;52.154;4.498;2023-06-01T00:36:46;102487.06;;;13.17;71.05
72414;BME280;60995;52.154;4.498;2023-06-01T00:39:03;102485.13;;;13.30;70.85
72414;BME280;60995;52.154;4.498;2023-06-01T00:41:19;102484.16;;;13.31;70.49
72414;BME280;60995;52.154;4.498;2023-06-01T00:43:36;102486.88;;;13.31;70.52
72414;BME280;60995;52.154;4.498;2023-06-01T00:45:53;102488.19;;;13.26;70.56
72414;BME280;60995;52.154;4.498;2023-06-01T00:48:14;102488.38;;;13.35;70.59
72414;BME280;60995;52.154;4.498;2023-06-01T00:50:32;102491.81;;;13.26;70.41
72414;BME280;60995;52.154;4.498;2023-06-01T00:52:50;102489.78;;;13.17;70.55
72414;BME280;60995;52.154;4.498;2023-06-01T00:55:09;102494.75;;;13.23;70.74
72414;BME280;60995;52.154;4.498;2023-06-01T00:57:26;102492.53;;;13.41;70.54
72414;BME280;60995;52.154;4.498;2023-06-01T00:59:44;102490.84;;;13.27;70.54
72414;BME280;60995;52.154;4.498;2023-06-01T01:02:01;102496.84;;;13.19;70.50
72414;BME280;60995;52.154;4.498;2023-06-01T01:04:20;102504.81;;;13.10;70.51
72414;BME280;60995;52.154;4.498;2023-06-01T01:09:39;102511.50;;;12.93;71.36
72414;BME280;60995;52.154;4.498;2023-06-01T01:12:16;102499.63;;;13.06;71.16
72414;BME280;60995;52.154;4.498;2023-06-01T01:17:40;102490.94;;;12.76;71.54
72414;BME280;60995;52.154;4.498;2023-06-01T01:20:08;102493.44;;;12.79;71.92
72414;BME280;60995;52.154;4.498;2023-06-01T01:23:06;102490.03;;;12.88;71.48
72414;BME280;60995;52.154;4.498;2023-06-01T01:28:42;102488.22;;;12.76;71.46
72414;BME280;60995;52.154;4.498;2023-06-01T01:31:04;102489.44;;;12.58;71.67
72414;BME280;60995;52.154;4.498;2023-06-01T01:33:26;102482.25;;;12.70;71.53
72414;BME280;60995;52.154;4.498;2023-06-01T01:35:44;102478.41;;;12.86;71.88
72414;BME280;60995;52.154;4.498;2023-06-01T01:38:01;102482.00;;;12.73;71.59
72414;BME280;60995;52.154;4.498;2023-06-01T01:40:18;102480.72;;;12.79;71.33
72414;BME280;60995;52.154;4.498;2023-06-01T01:42:34;102496.16;;;12.79;71.17
72414;BME280;60995;52.154;4.498;2023-06-01T01:44:51;102484.84;;;12.85;70.91
72414;BME280;60995;52.154;4.498;2023-06-01T01:49:56;102490.28;;;12.85;70.93
72414;BME280;60995;52.154;4.498;2023-06-01T01:52:18;102487.31;;;12.88;71.07
72414;BME280;60995;52.154;4.498;2023-06-01T01:54:43;102486.47;;;12.87;70.78
72414;BME280;60995;52.154;4.498;2023-06-01T01:57:07;102482.63;;;12.90;70.86
72414;BME280;60995;52.154;4.498;2023-06-01T01:59:25;102497.25;;;12.89;70.85
72414;BME280;60995;52.154;4.498;2023-06-01T02:01:43;102489.31;;;12.86;70.98
72414;BME280;60995;52.154;4.498;2023-06-01T02:04:02;102482.00;;;12.73;71.10
72414;BME280;60995;52.154;4.498;2023-06-01T02:06:19;102481.38;;;12.83;71.18
72414;BME280;60995;52.154;4.498;2023-06-01T02:08:36;102479.56;;;13.07;70.97
72414;BME280;60995;52.154;4.498;2023-06-01T02:10:52;102476.94;;;13.06;70.76
72414;BME280;60995;52.154;4.498;2023-06-01T02:13:08;102470.63;;;13.05;70.63
72414;BME280;60995;52.154;4.498;2023-06-01T02:15:27;102471.31;;;12.96;70.77
72414;BME280;60995;52.154;4.498;2023-06-01T02:17:43;102469.53;;;13.08;70.47
72414;BME280;60995;52.154;4.498;2023-06-01T02:20:03;102475.25;;;12.92;70.91
72414;BME280;60995;52.154;4.498;2023-06-01T02:22:20;102470.38;;;13.08;70.83
72414;BME280;60995;52.154;4.498;2023-06-01T02:24:36;102469.41;;;13.10;70.37
72414;BME280;60995;52.154;4.498;2023-06-01T02:26:53;102461.13;;;12.98;70.12
72414;BME280;60995;52.154;4.498;2023-06-01T02:29:09;102466.84;;;12.95;70.73
72414;BME280;60995;52.154;4.498;2023-06-01T02:31:28;102468.88;;;13.04;70.76
72414;BME280;60995;52.154;4.498;2023-06-01T02:33:44;102464.09;;;12.95;70.61
72414;BME280;60995;52.154;4.498;2023-06-01T02:36:01;102472.78;;;13.13;70.33
72414;BME280;60995;52.154;4.498;2023-06-01T02:38:18;102463.88;;;12.98;70.18
72414;BME280;60995;52.154;4.498;2023-06-01T02:40:35;102463.41;;;13.04;70.28
72414;BME280;60995;52.154;4.498;2023-06-01T02:42:52;102459.91;;;12.78;70.19
72414;BME280;60995;52.154;4.498;2023-06-01T02:45:09;102460.31;;;12.85;70.88
72414;BME280;60995;52.154;4.498;2023-06-01T02:47:25;102455.59;;;13.00;70.58
72414;BME280;60995;52.154;4.498;2023-06-01T02:49:42;102465.41;;;13.02;70.23
72414;BME280;60995;52.154;4.498;2023-06-01T02:51:58;102465.63;;;12.99;70.55
72414;BME280;60995;52.154;4.498;2023-06-01T02:54:15;102463.41;;;13.04;70.44
72414;BME280;60995;52.154;4.498;2023-06-01T02:56:31;102453.50;;;13.03;70.62
72414;BME280;60995;52.154;4.498;2023-06-01T02:58:48;102450.78;;;13.03;70.56
72414;BME280;60995;52.154;4.498;2023-06-01T03:01:05;102458.06;;;13.16;70.48
72414;BME280;60995;52.154;4.498;2023-06-01T03:03:24;102456.00;;;13.06;70.57
72414;BME280;60995;52.154;4.498;2023-06-01T03:05:41;102449.91;;;13.03;70.63
72414;BME280;60995;52.154;4.498;2023-06-01T03:07:59;102446.66;;;12.98;70.67
72414;BME280;60995;52.154;4.498;2023-06-01T03:10:15;102454.94;;;12.96;70.72
72414;BME280;60995;52.154;4.498;2023-06-01T03:12:33;102454.50;;;13.02;70.51
72414;BME280;60995;52.154;4.498;2023-06-01T03:14:49;102446.00;;;12.94;70.44
72414;BME280;60995;52.154;4.498;2023-06-01T03:17:06;102449.97;;;12.77;70.89
72414;BME280;60995;52.154;4.498;2023-06-01T03:19:22;102446.28;;;12.78;70.92
72414;BME280;60995;52.154;4.498;2023-06-01T03:21:38;102449.69;;;12.69;71.56
72414;BME280;60995;52.154;4.498;2023-06-01T03:23:55;102467.28;;;12.76;71.38
72414;BME280;60995;52.154;4.498;2023-06-01T03:26:12;102455.84;;;12.84;71.33
72414;BME280;60995;52.154;4.498;2023-06-01T03:28:28;102466.06;;;12.93;71.08
72414;BME280;60995;52.154;4.498;2023-06-01T03:30:45;102458.25;;;12.88;70.97
72414;BME280;60995;52.154;4.498;2023-06-01T03:33:02;102458.38;;;12.74;70.76
72414;BME280;60995;52.154;4.498;2023-06-01T03:35:19;102463.28;;;12.82;70.63
72414;BME280;60995;52.154;4.498;2023-06-01T03:37:36;102463.19;;;12.70;70.72
72414;BME280;60995;52.154;4.498;2023-06-01T03:39:54;102461.94;;;12.87;70.97
72414;BME280;60995;52.154;4.498;2023-06-01T03:42:14;102462.47;;;12.93;70.94
72414;BME280;60995;52.154;4.498;2023-06-01T03:44:31;102454.16;;;12.70;70.73
72414;BME280;60995;52.154;4.498;2023-06-01T03:46:47;102465.09;;;12.94;71.13
72414;BME280;60995;52.154;4.498;2023-06-01T03:49:05;102454.78;;;12.73;71.06
72414;BME280;60995;52.154;4.498;2023-06-01T03:51:22;102455.44;;;12.77;70.46
72414;BME280;60995;52.154;4.498;2023-06-01T03:53:38;102457.81;;;12.82;70.39
72414;BME280;60995;52.154;4.498;2023-06-01T03:55:55;102465.47;;;12.77;70.49
72414;BME280;60995;52.154;4.498;2023-06-01T03:58:12;102463.94;;;12.85;70.52
72414;BME280;60995;52.154;4.498;2023-06-01T04:00:28;102461.53;;;12.81;70.35
72414;BME280;60995;52.154;4.498;2023-06-01T04:02:55;102465.53;;;12.88;70.16
72414;BME280;60995;52.154;4.498;2023-06-01T04:05:14;102467.75;;;12.83;70.15
72414;BME280;60995;52.154;4.498;2023-06-01T04:07:33;102467.38;;;12.87;70.39
72414;BME280;60995;52.154;4.498;2023-06-01T04:09:52;102465.16;;;13.05;70.38
72414;BME280;60995;52.154;4.498;2023-06-01T04:12:09;102464.47;;;13.15;70.09
72414;BME280;60995;52.154;4.498;2023-06-01T04:14:29;102467.13;;;13.03;70.07
72414;BME280;60995;52.154;4.498;2023-06-01T04:16:45;102462.47;;;13.30;70.00
72414;BME280;60995;52.154;4.498;2023-06-01T04:19:02;102452.81;;;13.50;69.30
72414;BME280;60995;52.154;4.498;2023-06-01T04:21:20;102446.69;;;13.46;68.73
72414;BME280;60995;52.154;4.498;2023-06-01T04:23:37;102448.13;;;13.52;68.79
72414;BME280;60995;52.154;4.498;2023-06-01T04:25:54;102454.34;;;13.41;68.81
72414;BME280;60995;52.154;4.498;2023-06-01T04:28:15;102445.44;;;13.39;68.88
72414;BME280;60995;52.154;4.498;2023-06-01T04:30:32;102455.69;;;13.35;69.37
72414;BME280;60995;52.154;4.498;2023-06-01T04:32:49;102456.50;;;13.49;68.96
72414;BME280;60995;52.154;4.498;2023-06-01T04:35:06;102461.56;;;13.42;68.89
72414;BME280;60995;52.154;4.498;2023-06-01T04:37:23;102457.09;;;13.41;68.91
72414;BME280;60995;52.154;4.498;2023-06-01T04:39:40;102448.00;;;13.53;68.80
72414;BME280;60995;52.154;4.498;2023-06-01T04:41:58;102446.22;;;13.88;68.14
72414;BME280;60995;52.154;4.498;2023-06-01T04:44:14;102450.50;;;14.03;67.34
72414;BME280;60995;52.154;4.498;2023-06-01T04:46:31;102457.50;;;14.30;66.66
72414;BME280;60995;52.154;4.498;2023-06-01T04:48:49;102451.75;;;14.11;66.53
72414;BME280;60995;52.154;4.498;2023-06-01T04:51:07;102449.47;;;13.93;66.73
72414;BME280;60995;52.154;4.498;2023-06-01T04:53:27;102458.41;;;13.95;66.91
72414;BME280;60995;52.154;4.498;2023-06-01T04:55:45;102452.16;;;13.70;67.10
72414;BME280;60995;52.154;4.498;2023-06-01T04:58:02;102450.44;;;13.81;67.46
72414;BME280;60995;52.154;4.498;2023-06-01T05:00:20;102463.06;;;13.82;67.13
72414;BME280;60995;52.154;4.498;2023-06-01T05:02:37;102459.34;;;13.83;66.80
72414;BME280;60995;52.154;4.498;2023-06-01T05:05:01;102455.69;;;14.06;66.93
72414;BME280;60995;52.154;4.498;2023-06-01T05:07:18;102459.06;;;13.99;66.71
72414;BME280;60995;52.154;4.498;2023-06-01T05:09:37;102468.25;;;14.20;66.60
72414;BME280;60995;52.154;4.498;2023-06-01T05:11:54;102458.25;;;14.44;66.26
72414;BME280;60995;52.154;4.498;2023-06-01T05:14:12;102454.91;;;14.51;65.43
72414;BME280;60995;52.154;4.498;2023-06-01T05:16:32;102457.00;;;14.48;65.64
72414;BME280;60995;52.154;4.498;2023-06-01T05:18:48;102462.53;;;14.23;65.55
72414;BME280;60995;52.154;4.498;2023-06-01T05:21:05;102467.63;;;14.05;66.95
72414;BME280;60995;52.154;4.498;2023-06-01T05:23:22;102464.38;;;14.12;66.40
72414;BME280;60995;52.154;4.498;2023-06-01T05:25:47;102454.41;;;14.46;65.23
72414;BME280;60995;52.154;4.498;2023-06-01T05:28:06;102457.25;;;14.45;64.90
72414;BME280;60995;52.154;4.498;2023-06-01T05:30:26;102461.25;;;14.75;64.67
72414;BME280;60995;52.154;4.498;2023-06-01T05:32:45;102458.97;;;14.57;64.48
72414;BME280;60995;52.154;4.498;2023-06-01T05:35:04;102460.22;;;14.53;64.50
72414;BME280;60995;52.154;4.498;2023-06-01T05:37:31;102458.22;;;14.32;64.92
72414;BME280;60995;52.154;4.498;2023-06-01T05:39:50;102447.53;;;14.18;64.64
72414;BME280;60995;52.154;4.498;2023-06-01T05:42:07;102461.59;;;14.59;64.52
72414;BME280;60995;52.154;4.498;2023-06-01T05:44:30;102455.75;;;14.52;63.92
72414;BME280;60995;52.154;4.498;2023-06-01T05:46:50;102453.75;;;14.31;64.16
72414;BME280;60995;52.154;4.498;2023-06-01T05:49:08;102461.22;;;14.52;64.67
72414;BME280;60995;52.154;4.498;2023-06-01T05:51:30;102455.75;;;14.52;64.65
72414;BME280;60995;52.154;4.498;2023-06-01T05:54:10;102453.78;;;14.54;64.33
72414;BME280;60995;52.154;4.498;2023-06-01T05:56:33;102453.50;;;15.02;63.65
72414;BME280;60995;52.154;4.498;2023-06-01T05:58:49;102460.72;;;14.58;63.28
72414;BME280;60995;52.154;4.498;2023-06-01T06:01:09;102454.00;;;14.96;63.26
72414;BME280;60995;52.154;4.498;2023-06-01T06:03:34;102466.97;;;14.71;63.31
72414;BME280;60995;52.154;4.498;2023-06-01T06:06:11;102455.03;;;14.84;62.70
72414;BME280;60995;52.154;4.498;2023-06-01T06:08:30;102452.53;;;14.81;63.40
72414;BME280;60995;52.154;4.498;2023-06-01T06:11:10;102452.38;;;15.05;62.38
72414;BME280;60995;52.154;4.498;2023-06-01T06:14:08;102457.91;;;15.26;61.15
72414;BME280;60995;52.154;4.498;2023-06-01T06:16:47;102457.69;;;15.29;60.49
72414;BME280;60995;52.154;4.498;2023-06-01T06:19:14;102470.41;;;14.96;61.40
72414;BME280;60995;52.154;4.498;2023-06-01T06:21:50;102462.44;;;15.48;60.88
72414;BME280;60995;52.154;4.498;2023-06-01T06:24:14;102457.97;;;15.47;60.09
72414;BME280;60995;52.154;4.498;2023-06-01T06:26:34;102447.63;;;16.26;58.77
72414;BME280;60995;52.154;4.498;2023-06-01T06:29:03;102444.91;;;16.04;58.73
72414;BME280;60995;52.154;4.498;2023-06-01T06:31:27;102454.50;;;15.78;58.93
72414;BME280;60995;52.154;4.498;2023-06-01T06:34:11;102457.38;;;15.44;60.21
72414;BME280;60995;52.154;4.498;2023-06-01T06:36:34;102456.31;;;15.24;60.15
72414;BME280;60995;52.154;4.498;2023-06-01T06:38:56;102455.38;;;15.46;59.13
72414;BME280;60995;52.154;4.498;2023-06-01T06:41:25;102453.25;;;15.49;59.75
72414;BME280;60995;52.154;4.498;2023-06-01T06:44:03;102457.50;;;16.38;58.06
72414;BME280;60995;52.154;4.498;2023-06-01T06:53:34;102460.38;;;16.36;56.66
72414;BME280;60995;52.154;4.498;2023-06-01T06:55:57;102457.13;;;16.00;57.23
72414;BME280;60995;52.154;4.498;2023-06-01T06:58:14;102459.66;;;15.92;58.37
72414;BME280;60995;52.154;4.498;2023-06-01T07:00:48;102468.91;;;15.80;58.59
72414;BME280;60995;52.154;4.498;2023-06-01T07:03:08;102464.69;;;15.87;58.42
72414;BME280;60995;52.154;4.498;2023-06-01T07:05:41;102466.41;;;15.88;58.32
72414;BME280;60995;52.154;4.498;2023-06-01T07:08:01;102465.88;;;15.94;57.72
72414;BME280;60995;52.154;4.498;2023-06-01T07:10:37;102472.41;;;16.24;56.81
72414;BME280;60995;52.154;4.498;2023-06-01T07:13:02;102466.25;;;16.63;55.72
72414;BME280;60995;52.154;4.498;2023-06-01T07:15:20;102472.28;;;16.57;54.98
72414;BME280;60995;52.154;4.498;2023-06-01T07:17:40;102474.28;;;16.85;54.69
72414;BME280;60995;52.154;4.498;2023-06-01T07:19:59;102469.47;;;16.78;54.18
72414;BME280;60995;52.154;4.498;2023-06-01T07:22:20;102476.53;;;16.70;54.60
72414;BME280;60995;52.154;4.498;2023-06-01T07:24:37;102474.78;;;16.38;54.95
72414;BME280;60995;52.154;4.498;2023-06-01T07:26:54;102471.38;;;16.46;54.85
72414;BME280;60995;52.154;4.498;2023-06-01T07:29:14;102475.66;;;16.91;54.11
72414;BME280;60995;52.154;4.498;2023-06-01T07:31:31;102462.84;;;18.66;49.63
72414;BME280;60995;52.154;4.498;2023-06-01T07:33:51;102477.69;;;19.93;46.97
72414;BME280;60995;52.154;4.498;2023-06-01T07:36:12;102467.69;;;19.92;45.91
72414;BME280;60995;52.154;4.498;2023-06-01T07:38:28;102470.50;;;21.30;42.94
72414;BME280;60995;52.154;4.498;2023-06-01T07:40:46;102469.44;;;20.80;43.11
72414;BME280;60995;52.154;4.498;2023-06-01T07:43:02;102468.06;;;19.79;45.94
72414;BME280;60995;52.154;4.498;2023-06-01T07:45:19;102467.91;;;19.45;46.58
72414;BME280;60995;52.154;4.498;2023-06-01T07:47:35;102472.88;;;18.58;48.58
72414;BME280;60995;52.154;4.498;2023-06-01T07:49:52;102473.16;;;19.20;48.10
72414;BME280;60995;52.154;4.498;2023-06-01T07:52:10;102466.75;;;19.01;47.86
72414;BME280;60995;52.154;4.498;2023-06-01T07:54:27;102466.19;;;18.60;48.24
72414;BME280;60995;52.154;4.498;2023-06-01T07:56:44;102468.66;;;18.63;48.43
72414;BME280;60995;52.154;4.498;2023-06-01T07:59:00;102454.41;;;18.78;48.48
72414;BME280;60995;52.154;4.498;2023-06-01T08:01:20;102452.94;;;19.29;48.33
72414;BME280;60995;52.154;4.498;2023-06-01T08:03:42;102459.41;;;18.92;48.21
72414;BME280;60995;52.154;4.498;2023-06-01T08:06:02;102458.94;;;20.84;43.54
72414;BME280;60995;52.154;4.498;2023-06-01T08:08:24;102459.31;;;21.48;42.59
72414;BME280;60995;52.154;4.498;2023-06-01T08:10:42;102451.94;;;22.71;39.43
72414;BME280;60995;52.154;4.498;2023-06-01T08:12:58;102453.16;;;21.88;39.35
72414;BME280;60995;52.154;4.498;2023-06-01T08:15:15;102452.06;;;20.54;43.34
72414;BME280;60995;52.154;4.498;2023-06-01T08:17:38;102449.81;;;22.25;40.58
72414;BME280;60995;52.154;4.498;2023-06-01T08:19:55;102451.25;;;23.40;37.83
72414;BME280;60995;52.154;4.498;2023-06-01T08:22:12;102434.97;;;22.74;38.12
72414;BME280;60995;52.154;4.498;2023-06-01T08:24:29;102446.03;;;20.24;43.44
72414;BME280;60995;52.154;4.498;2023-06-01T08:26:48;102434.81;;;20.17;43.86
72414;BME280;60995;52.154;4.498;2023-06-01T08:29:05;102448.84;;;20.32;43.41
72414;BME280;60995;52.154;4.498;2023-06-01T08:31:25;102447.91;;;20.84;42.98
72414;BME280;60995;52.154;4.498;2023-06-01T08:33:44;102447.53;;;20.71;42.68
72414;BME280;60995;52.154;4.498;2023-06-01T08:36:01;102441.88;;;23.18;38.43
72414;BME280;60995;52.154;4.498;2023-06-01T08:38:18;102443.66;;;24.93;34.63
72414;BME280;60995;52.154;4.498;2023-06-01T08:40:37;102429.47;;;26.40;31.89
72414;BME280;60995;52.154;4.498;2023-06-01T08:43:18;102437.19;;;28.35;29.43
72414;BME280;60995;52.154;4.498;2023-06-01T08:45:37;102440.97;;;27.27;29.96
72414;BME280;60995;52.154;4.498;2023-06-01T08:47:58;102429.06;;;27.53;29.97
72414;BME280;60995;52.154;4.498;2023-06-01T08:50:15;102432.03;;;28.32;28.39
72414;BME280;60995;52.154;4.498;2023-06-01T08:52:41;102432.66;;;26.72;30.57
72414;BME280;60995;52.154;4.498;2023-06-01T08:55:00;102434.53;;;27.13;30.28
72414;BME280;60995;52.154;4.498;2023-06-01T08:57:18;102429.28;;;26.48;30.29
72414;BME280;60995;52.154;4.498;2023-06-01T08:59:36;102437.63;;;26.48;30.66
72414;BME280;60995;52.154;4.498;2023-06-01T09:01:57;102427.34;;;27.93;29.08
72414;BME280;60995;52.154;4.498;2023-06-01T09:04:14;102423.47;;;28.27;28.87
72414;BME280;60995;52.154;4.498;2023-06-01T09:06:30;102414.94;;;26.86;29.69
72414;BME280;60995;52.154;4.498;2023-06-01T09:08:47;102416.91;;;26.99;29.97
72414;BME280;60995;52.154;4.498;2023-06-01T09:11:04;102415.81;;;25.88;31.63
72414;BME280;60995;52.154;4.498;2023-06-01T09:13:40;102411.47;;;27.46;29.38
72414;BME280;60995;52.154;4.498;2023-06-01T09:15:57;102406.25;;;27.23;30.19
72414;BME280;60995;52.154;4.498;2023-06-01T09:18:14;102405.53;;;26.52;30.39
72414;BME280;60995;52.154;4.498;2023-06-01T09:20:31;102410.31;;;27.34;29.23
72414;BME280;60995;52.154;4.498;2023-06-01T09:22:48;102407.41;;;26.80;30.16
72414;BME280;60995;52.154;4.498;2023-06-01T09:25:04;102414.34;;;26.98;30.23
72414;BME280;60995;52.154;4.498;2023-06-01T09:27:21;102399.03;;;27.96;28.47
72414;BME280;60995;52.154;4.498;2023-06-01T09:29:37;102403.66;;;26.60;30.31
72414;BME280;60995;52.154;4.498;2023-06-01T09:31:55;102401.31;;;25.93;31.73
72414;BME280;60995;52.154;4.498;2023-06-01T09:34:16;102398.13;;;26.24;30.90
72414;BME280;60995;52.154;4.498;2023-06-01T09:36:38;102392.53;;;26.60;30.54
72414;BME280;60995;52.154;4.498;2023-06-01T09:39:02;102388.25;;;26.57;30.61
72414;BME280;60995;52.154;4.498;2023-06-01T09:41:23;102395.13;;;26.68;30.42
72414;BME280;60995;52.154;4.498;2023-06-01T09:43:43;102401.22;;;26.43;30.82
72414;BME280;60995;52.154;4.498;2023-06-01T09:46:07;102384.56;;;26.56;30.71
72414;BME280;60995;52.154;4.498;2023-06-01T09:48:25;102391.22;;;27.04;30.47
72414;BME280;60995;52.154;4.498;2023-06-01T09:50:44;102383.16;;;27.49;29.55
72414;BME280;60995;52.154;4.498;2023-06-01T09:53:02;102383.50;;;27.19;29.46
72414;BME280;60995;52.154;4.498;2023-06-01T09:55:20;102381.38;;;27.08;29.82
72414;BME280;60995;52.154;4.498;2023-06-01T09:57:37;102382.69;;;25.65;31.78
72414;BME280;60995;52.154;4.498;2023-06-01T09:59:53;102388.28;;;24.55;33.68
72414;BME280;60995;52.154;4.498;2023-06-01T10:02:16;102389.75;;;25.96;31.68
72414;BME280;60995;52.154;4.498;2023-06-01T10:04:37;102383.56;;;27.33;29.65
72414;BME280;60995;52.154;4.498;2023-06-01T10:06:57;102388.47;;;27.31;29.13
72414;BME280;60995;52.154;4.498;2023-06-01T10:09:14;102382.19;;;26.95;30.14
72414;BME280;60995;52.154;4.498;2023-06-01T10:11:34;102380.44;;;26.81;30.18
72414;BME280;60995;52.154;4.498;2023-06-01T10:13:50;102376.94;;;26.23;30.98
72414;BME280;60995;52.154;4.498;2023-06-01T10:16:07;102390.09;;;24.78;33.70
72414;BME280;60995;52.154;4.498;2023-06-01T10:18:24;102370.13;;;26.81;30.74
72414;BME280;60995;52.154;4.498;2023-06-01T10:20:42;102379.81;;;25.80;32.22
72414;BME280;60995;52.154;4.498;2023-06-01T10:22:59;102379.94;;;25.07;33.84
72414;BME280;60995;52.154;4.498;2023-06-01T10:25:18;102384.47;;;25.30;33.68
72414;BME280;60995;52.154;4.498;2023-06-01T10:27:42;102395.56;;;25.30;34.14
72414;BME280;60995;52.154;4.498;2023-06-01T10:30:09;102378.22;;;25.99;32.50
72414;BME280;60995;52.154;4.498;2023-06-01T10:32:47;102379.66;;;27.34;30.50
72414;BME280;60995;52.154;4.498;2023-06-01T10:35:07;102377.78;;;27.54;30.01
72414;BME280;60995;52.154;4.498;2023-06-01T10:37:23;102374.88;;;28.48;28.79
72414;BME280;60995;52.154;4.498;2023-06-01T10:39:40;102374.56;;;29.15;28.08
72414;BME280;60995;52.154;4.498;2023-06-01T10:46:58;102377.72;;;26.52;31.68
72414;BME280;60995;52.154;4.498;2023-06-01T10:49:15;102368.38;;;25.97;32.29
72414;BME280;60995;52.154;4.498;2023-06-01T10:51:31;102379.09;;;24.70;34.08
72414;BME280;60995;52.154;4.498;2023-06-01T10:53:49;102358.47;;;26.57;31.92
72414;BME280;60995;52.154;4.498;2023-06-01T10:56:32;102370.75;;;26.00;31.98
72414;BME280;60995;52.154;4.498;2023-06-01T11:01:23;102368.28;;;24.75;34.24
72414;BME280;60995;52.154;4.498;2023-06-01T11:03:46;102362.91;;;25.10;34.13
72414;BME280;60995;52.154;4.498;2023-06-01T11:06:22;102364.28;;;24.99;34.23
72414;BME280;60995;52.154;4.498;2023-06-01T11:11:04;102358.44;;;23.59;37.02
72414;BME280;60995;52.154;4.498;2023-06-01T11:13:27;102360.50;;;25.29;34.04
72414;BME280;60995;52.154;4.498;2023-06-01T11:18:42;102370.88;;;24.61;35.59
72414;BME280;60995;52.154;4.498;2023-06-01T11:20:59;102372.50;;;23.58;36.55
72414;BME280;60995;52.154;4.498;2023-06-01T11:23:19;102374.31;;;23.27;37.41
72414;BME280;60995;52.154;4.498;2023-06-01T11:25:36;102368.00;;;24.40;35.97
72414;BME280;60995;52.154;4.498;2023-06-01T11:27:53;102370.91;;;24.98;34.79
72414;BME280;60995;52.154;4.498;2023-06-01T11:30:11;102360.22;;;25.38;33.86
72414;BME280;60995;52.154;4.498;2023-06-01T11:32:29;102359.91;;;26.05;33.33
72414;BME280;60995;52.154;4.498;2023-06-01T11:34:48;102365.25;;;24.25;35.83
72414;BME280;60995;52.154;4.498;2023-06-01T11:37:06;102359.81;;;24.02;36.55
72414;BME280;60995;52.154;4.498;2023-06-01T11:39:29;102361.06;;;23.76;36.95
72414;BME280;60995;52.154;4.498;2023-06-01T11:41:46;102356.13;;;23.86;36.75
72414;BME280;60995;52.154;4.498;2023-06-01T11:44:07;102365.63;;;23.31;37.83
72414;BME280;60995;52.154;4.498;2023-06-01T11:46:24;102359.94;;;23.85;37.49
72414;BME280;60995;52.154;4.498;2023-06-01T11:51:35;102358.63;;;24.71;35.45
72414;BME280;60995;52.154;4.498;2023-06-01T11:53:55;102358.00;;;23.71;38.23
72414;BME280;60995;52.154;4.498;2023-06-01T11:56:11;102364.69;;;23.61;38.25
72414;BME280;60995;52.154;4.498;2023-06-01T11:58:29;102355.00;;;23.95;37.82
72414;BME280;60995;52.154;4.498;2023-06-01T12:00:46;102370.09;;;23.08;39.38
72414;BME280;60995;52.154;4.498;2023-06-01T12:03:06;102362.44;;;22.87;39.87
72414;BME280;60995;52.154;4.498;2023-06-01T12:05:23;102363.88;;;21.79;41.94
72414;BME280;60995;52.154;4.498;2023-06-01T12:10:01;102363.31;;;21.92;42.71
72414;BME280;60995;52.154;4.498;2023-06-01T12:12:17;102349.22;;;22.26;42.37
72414;BME280;60995;52.154;4.498;2023-06-01T12:14:34;102360.25;;;22.43;41.71
72414;BME280;60995;52.154;4.498;2023-06-01T12:16:58;102362.88;;;22.99;40.60
72414;BME280;60995;52.154;4.498;2023-06-01T12:19:19;102366.94;;;22.57;41.30
72414;BME280;60995;52.154;4.498;2023-06-01T12:23:53;102368.19;;;21.73;43.76
72414;BME280;60995;52.154;4.498;2023-06-01T12:26:09;102355.88;;;22.57;42.22
72414;BME280;60995;52.154;4.498;2023-06-01T12:28:27;102374.16;;;22.98;41.37
72414;BME280;60995;52.154;4.498;2023-06-01T12:33:36;102374.38;;;21.42;43.62
72414;BME280;60995;52.154;4.498;2023-06-01T12:35:52;102378.94;;;20.84;45.50
72414;BME280;60995;52.154;4.498;2023-06-01T12:38:10;102368.16;;;21.15;45.20
72414;BME280;60995;52.154;4.498;2023-06-01T12:40:27;102380.41;;;21.29;45.18
72414;BME280;60995;52.154;4.498;2023-06-01T12:42:44;102373.88;;;21.39;44.57
72414;BME280;60995;52.154;4.498;2023-06-01T12:45:01;102375.72;;;20.54;45.84
72414;BME280;60995;52.154;4.498;2023-06-01T12:47:19;102373.13;;;20.87;45.94
72414;BME280;60995;52.154;4.498;2023-06-01T12:49:35;102383.63;;;20.49;45.93
72414;BME280;60995;52.154;4.498;2023-06-01T12:51:53;102378.69;;;19.74;48.39